createdAt,value
2023-04-18T10:51:46.655Z,25.7551
2023-04-18T10:52:48.288Z,26.0020
2023-04-18T10:53:50.727Z,26.2889
2023-04-18T10:54:51.564Z,26.5063
2023-04-18T10:55:54.217Z,26.7248
2023-04-18T10:56:54.841Z,26.9378
2023-04-18T10:57:57.577Z,27.1476
2023-04-18T10:58:58.199Z,27.3756
2023-04-18T10:59:59.769Z,27.5553
2023-04-18T11:01:01.646Z,27.7617
2023-04-18T11:02:03.162Z,27.9696
2023-04-18T11:03:05.613Z,28.2116
2023-04-18T11:04:06.405Z,28.4930
2023-04-18T11:05:08.049Z,28.7317
2023-04-18T11:06:09.664Z,28.9451
2023-04-18T11:07:11.407Z,29.0605
2023-04-18T11:08:13.050Z,29.1501
2023-04-18T11:09:14.642Z,29.1992
2023-04-18T11:10:16.202Z,29.3315
2023-04-18T11:11:17.920Z,29.4065
2023-04-18T11:12:19.858Z,29.3962
2023-04-18T11:13:21.857Z,29.4301
2023-04-18T11:14:22.912Z,29.3820
2023-04-18T11:15:24.583Z,29.1980
2023-04-18T11:16:26.300Z,29.1374
2023-04-18T11:17:27.927Z,29.1357
2023-04-18T11:18:29.581Z,29.2994
2023-04-18T11:19:31.206Z,29.4792
2023-04-18T11:20:32.838Z,29.6940
2023-04-18T11:21:34.454Z,29.8251
2023-04-18T11:22:36.831Z,29.9356
2023-04-18T11:23:37.742Z,29.9660
2023-04-18T11:24:39.456Z,29.9974
2023-04-18T11:25:41.003Z,29.9871
2023-04-18T11:26:42.792Z,29.9937
2023-04-18T11:27:44.408Z,29.9148
2023-04-18T11:28:46.035Z,29.8243
2023-04-18T11:29:47.698Z,29.6710
2023-04-18T11:30:49.374Z,29.5484
2023-04-18T11:31:51.038Z,29.4537
2023-04-18T11:32:52.708Z,29.4701
2023-04-18T11:33:54.192Z,29.5266
2023-04-18T11:34:56.775Z,29.6117
2023-04-18T11:35:57.539Z,29.6774
2023-04-18T11:36:59.189Z,29.7470
2023-04-18T11:38:00.871Z,29.7489
2023-04-18T11:39:02.582Z,29.7678
2023-04-18T11:40:04.206Z,29.8454
2023-04-18T11:41:05.785Z,29.9861
2023-04-18T11:42:07.499Z,30.0313
2023-04-18T11:43:09.166Z,30.0256
2023-04-18T11:44:10.776Z,29.9604
2023-04-18T11:45:12.374Z,29.8503
2023-04-18T11:46:14.098Z,29.7047
2023-04-18T11:47:15.665Z,29.6706
2023-04-18T11:48:17.448Z,29.6308
2023-04-18T11:49:19.012Z,29.5120
2023-04-18T11:50:20.634Z,29.6338
2023-04-18T11:51:22.367Z,29.7000
2023-04-18T11:52:23.909Z,29.7713
2023-04-18T11:53:25.620Z,29.8469
2023-04-18T11:54:27.241Z,29.9411
2023-04-18T11:55:28.876Z,29.9697
2023-04-18T11:56:30.499Z,29.9730
2023-04-18T11:57:32.131Z,30.0303
2023-04-18T11:58:33.773Z,30.1587
2023-04-18T11:59:35.494Z,30.2850
2023-04-18T12:00:37.054Z,30.3791
2023-04-18T12:01:38.724Z,29.9674
2023-04-18T12:02:40.494Z,29.8927
2023-04-18T12:03:42.260Z,29.8374
2023-04-18T12:04:44.165Z,29.7002
2023-04-18T12:05:45.594Z,29.5268
2023-04-18T12:06:47.018Z,29.4788
2023-04-18T12:07:48.603Z,29.5124
2023-04-18T12:08:51.207Z,29.6462
2023-04-18T12:09:51.936Z,29.9424
2023-04-18T12:10:54.259Z,29.9898
2023-04-18T12:11:55.204Z,29.9748
2023-04-18T12:12:56.818Z,29.9763
2023-04-18T12:13:58.444Z,29.9787
2023-04-18T12:15:00.292Z,29.9886
2023-04-18T12:16:01.805Z,29.8869
2023-04-18T12:17:03.310Z,29.7345
2023-04-18T12:18:05.810Z,29.7353
2023-04-18T12:19:06.627Z,29.6665
2023-04-18T12:20:08.322Z,29.6546
2023-04-18T12:21:09.933Z,29.6774
2023-04-18T12:22:12.221Z,29.9777
2023-04-18T12:23:13.450Z,30.1005
2023-04-18T12:24:16.626Z,30.1102
2023-04-18T12:25:16.605Z,30.1328
2023-04-18T12:26:18.191Z,30.2234
2023-04-18T12:27:19.858Z,30.2554
2023-04-18T12:28:21.487Z,30.2994
2023-04-18T12:29:23.153Z,30.4169
2023-04-18T12:30:24.846Z,30.5372
2023-04-18T12:31:26.457Z,30.7090
2023-04-18T12:32:28.068Z,30.8328
2023-04-18T12:33:29.729Z,30.8768
2023-04-18T12:34:31.310Z,30.9429
2023-04-18T12:35:33.394Z,31.0857
2023-04-18T12:36:34.636Z,31.2293
2023-04-18T12:37:36.270Z,31.2919
2023-04-18T12:38:37.914Z,31.1664
2023-04-18T12:39:39.590Z,30.8336
2023-04-18T12:40:41.252Z,30.4731
2023-04-18T12:41:42.871Z,30.3324
2023-04-18T12:42:44.494Z,30.2421
2023-04-18T12:43:46.158Z,30.1815
2023-04-18T12:44:48.044Z,30.2934
2023-04-18T12:45:49.460Z,30.4830
2023-04-18T12:46:51.210Z,30.8552
2023-04-18T12:47:52.818Z,30.8466
2023-04-18T12:48:54.363Z,30.8643
2023-04-18T12:49:55.974Z,30.9384
2023-04-18T12:50:57.731Z,31.0569
2023-04-18T12:51:59.274Z,31.2648
2023-04-18T12:53:00.882Z,31.2186
2023-04-18T12:54:02.606Z,30.7049
2023-04-18T12:55:04.204Z,30.2394
2023-04-18T12:56:05.944Z,30.0533
2023-04-18T12:57:07.482Z,29.9502
2023-04-18T12:58:09.197Z,29.8719
2023-04-18T12:59:10.780Z,29.9167
2023-04-18T13:00:12.456Z,30.0695
2023-04-18T13:01:14.247Z,30.2260
2023-04-18T13:02:15.850Z,30.3739
2023-04-18T13:03:17.400Z,30.5504
2023-04-18T13:04:19.236Z,31.7177
2023-04-18T13:05:21.388Z,32.7127
2023-04-18T13:06:22.410Z,32.7996
2023-04-18T13:07:23.927Z,32.5188
2023-04-18T13:08:25.605Z,32.0984
2023-04-18T13:09:27.213Z,31.9969
2023-04-18T13:10:28.891Z,31.8295
2023-04-18T13:11:30.870Z,31.2642
2023-04-18T13:12:32.178Z,30.9417
2023-04-18T13:13:35.604Z,30.6831
2023-04-18T13:14:35.488Z,30.8468
2023-04-18T13:15:37.097Z,31.2276
2023-04-18T13:16:39.762Z,31.3765
2023-04-18T13:17:40.485Z,31.5300
2023-04-18T13:18:42.066Z,31.6037
2023-04-18T13:19:43.716Z,31.4497
2023-04-18T13:20:45.410Z,31.0892
2023-04-18T13:21:49.126Z,30.6890
2023-04-18T13:22:48.775Z,30.3466
2023-04-18T13:23:50.328Z,30.2396
2023-04-18T13:24:51.924Z,30.2819
2023-04-18T13:25:53.597Z,30.4939
2023-04-18T13:26:55.241Z,30.8020
2023-04-18T13:27:57.465Z,30.9620
2023-04-18T13:28:58.524Z,31.0838
2023-04-18T13:30:00.205Z,31.1313
2023-04-18T13:31:01.801Z,30.9275
2023-04-18T13:32:03.593Z,30.8811
2023-04-18T13:33:05.224Z,30.9672
2023-04-18T13:34:06.830Z,31.1927
2023-04-18T13:35:08.424Z,31.2845
2023-04-18T13:36:10.124Z,30.8334
2023-04-18T13:37:11.773Z,30.3534
2023-04-18T13:38:13.415Z,30.1291
2023-04-18T13:39:15.126Z,30.3179
2023-04-18T13:40:16.687Z,30.6369
2023-04-18T13:41:18.291Z,30.9783
2023-04-18T13:42:20.005Z,31.0103
2023-04-18T13:43:21.652Z,31.1177
2023-04-18T13:44:23.271Z,31.1434
2023-04-18T13:45:24.842Z,31.1695
2023-04-18T13:46:26.631Z,31.1976
2023-04-18T13:47:28.395Z,31.3266
2023-04-18T13:48:29.892Z,31.2730
2023-04-18T13:49:31.492Z,31.0224
2023-04-18T13:50:33.166Z,31.1126
2023-04-18T13:51:34.818Z,31.3198
2023-04-18T13:52:36.503Z,31.3989
2023-04-18T13:53:38.108Z,31.4332
2023-04-18T13:54:39.722Z,31.4435
2023-04-18T13:55:41.372Z,31.3428
2023-04-18T13:56:43.044Z,30.8322
2023-04-18T13:57:44.709Z,30.6761
2023-04-18T13:58:46.455Z,30.4955
2023-04-18T13:59:47.961Z,30.8394
2023-04-18T14:00:49.578Z,30.9004
2023-04-18T14:01:51.260Z,30.8527
2023-04-18T14:02:53.576Z,30.9045
2023-04-18T14:03:54.761Z,31.0653
2023-04-18T14:04:56.282Z,31.1744
2023-04-18T14:05:57.856Z,31.1793
2023-04-18T14:06:59.473Z,31.1841
2023-04-18T14:08:01.160Z,31.1545
2023-04-18T14:09:03.758Z,31.1120
2023-04-18T14:10:05.377Z,30.9721
2023-04-18T14:11:06.103Z,30.8458
2023-04-18T14:12:07.889Z,30.6726
2023-04-18T14:13:09.380Z,30.5282
2023-04-18T14:14:11.100Z,30.6311
2023-04-18T14:15:12.740Z,30.5450
2023-04-18T14:16:14.351Z,30.4953
2023-04-18T14:17:15.950Z,30.4538
2023-04-18T14:18:17.640Z,30.3402
2023-04-18T14:19:19.319Z,30.3267
2023-04-18T14:20:21.437Z,30.3651
2023-04-18T14:21:22.494Z,30.2402
2023-04-18T14:22:24.213Z,29.9945
2023-04-18T14:23:25.910Z,29.7616
2023-04-18T14:24:27.521Z,29.4212
2023-04-18T14:25:29.171Z,29.4679
2023-04-18T14:26:30.843Z,29.6552
2023-04-18T14:27:32.421Z,29.7706
2023-04-18T14:28:34.134Z,29.8224
2023-04-18T14:29:36.364Z,29.8538
2023-04-18T14:30:37.456Z,29.7446
2023-04-18T14:31:39.104Z,29.4898
2023-04-18T14:32:40.806Z,29.2892
2023-04-18T14:33:42.317Z,29.3522
2023-04-18T14:34:44.087Z,30.0905
2023-04-18T14:35:45.707Z,30.2677
2023-04-18T14:36:47.278Z,30.1297
2023-04-18T14:37:48.924Z,29.9654
2023-04-18T14:38:50.646Z,29.9305
2023-04-18T14:39:52.300Z,29.8631
2023-04-18T14:40:54.010Z,30.3797
2023-04-18T14:41:55.504Z,30.9086
2023-04-18T14:42:57.204Z,30.9156
2023-04-18T14:43:58.801Z,30.7694
2023-04-18T14:45:00.552Z,30.6798
2023-04-18T14:46:02.174Z,31.1991
2023-04-18T14:47:03.873Z,31.8568
2023-04-18T14:48:06.333Z,32.0560
2023-04-18T14:49:07.061Z,32.8403
2023-04-18T14:50:08.812Z,33.1969
2023-04-18T14:51:10.416Z,32.7325
2023-04-18T14:52:12.068Z,32.0718
2023-04-18T14:53:13.656Z,31.5715
2023-04-18T14:54:15.356Z,31.1855
2023-04-18T14:55:16.991Z,30.9725
2023-04-18T14:56:18.739Z,30.7297
2023-04-18T14:57:20.240Z,30.6297
2023-04-18T14:58:21.920Z,30.6104
2023-04-18T14:59:23.535Z,30.4319
2023-04-18T15:00:25.205Z,30.3135
2023-04-18T15:01:26.921Z,30.0504
2023-04-18T15:02:28.578Z,29.9582
2023-04-18T15:03:31.043Z,30.0198
2023-04-18T15:04:31.906Z,29.9800
2023-04-18T15:05:33.501Z,30.0975
2023-04-18T15:06:35.527Z,30.1673
2023-04-18T15:07:36.737Z,30.0732
2023-04-18T15:08:38.388Z,29.9754
2023-04-18T15:09:40.109Z,29.7908
2023-04-18T15:10:41.720Z,29.5630
2023-04-18T15:11:43.610Z,29.4849
2023-04-18T15:12:44.963Z,29.5654
2023-04-18T15:13:46.681Z,29.6470
2023-04-18T15:14:48.248Z,29.6256
2023-04-18T15:15:50.482Z,29.6398
2023-04-18T15:16:51.687Z,29.7538
2023-04-18T15:17:53.314Z,29.8875
2023-04-18T15:18:54.898Z,29.9448
2023-04-18T15:19:56.495Z,29.8758
2023-04-18T15:20:58.214Z,29.6028
2023-04-18T15:22:00.556Z,29.4681
2023-04-18T15:23:01.493Z,29.4543
2023-04-18T15:24:03.099Z,29.4305
2023-04-18T15:25:04.821Z,29.4122
2023-04-18T15:26:06.485Z,29.4067
2023-04-18T15:27:08.116Z,29.4664
2023-04-18T15:28:09.713Z,29.5311
2023-04-18T15:29:11.385Z,29.5578
2023-04-18T15:30:13.061Z,29.4999
2023-04-18T15:31:14.774Z,29.4235
2023-04-18T15:32:16.446Z,29.3664
2023-04-18T15:33:17.998Z,29.0753
2023-04-18T15:34:19.675Z,28.7954
2023-04-18T15:35:21.900Z,28.6544
2023-04-18T15:36:23.037Z,28.6978
2023-04-18T15:37:24.659Z,28.8050
2023-04-18T15:38:26.228Z,28.8065
2023-04-18T15:39:27.831Z,28.8118
2023-04-18T15:40:29.578Z,28.8535
2023-04-18T15:41:31.220Z,28.9506
2023-04-18T15:42:32.966Z,28.9804
2023-04-18T15:43:34.528Z,28.9642
2023-04-18T15:44:36.176Z,28.9529
2023-04-18T15:45:37.858Z,28.9322
2023-04-18T15:46:41.410Z,28.9229
2023-04-18T15:47:42.101Z,28.9244
2023-04-18T15:48:42.776Z,28.9576
2023-04-18T15:49:44.473Z,28.9675
2023-04-18T15:50:46.041Z,28.9654
2023-04-18T15:51:47.798Z,28.9636
2023-04-18T15:52:49.411Z,28.9560
2023-04-18T15:53:51.008Z,28.9352
2023-04-18T15:54:52.604Z,28.9069
2023-04-18T15:55:54.363Z,28.9457
2023-04-18T15:56:55.925Z,28.9956
2023-04-18T15:57:57.583Z,29.0774
2023-04-18T15:58:59.266Z,29.1517
2023-04-18T16:00:00.941Z,29.0166
2023-04-18T16:01:02.562Z,28.9437
2023-04-18T16:02:05.081Z,28.8512
2023-04-18T16:03:05.957Z,28.8241
2023-04-18T16:04:07.619Z,28.7750
2023-04-18T16:05:09.908Z,28.7611
2023-04-18T16:06:10.778Z,28.7239
2023-04-18T16:07:12.444Z,28.6912
2023-04-18T16:08:14.066Z,28.6775
2023-04-18T16:09:15.709Z,28.6454
2023-04-18T16:10:17.347Z,28.6286
2023-04-18T16:11:18.970Z,28.5893
2023-04-18T16:12:20.748Z,28.6033
2023-04-18T16:13:22.284Z,28.6349
2023-04-18T16:14:23.947Z,28.6612
2023-04-18T16:15:25.528Z,28.6690
2023-04-18T16:16:27.211Z,28.6814
2023-04-18T16:17:28.997Z,28.6964
2023-04-18T16:18:30.534Z,28.7103
2023-04-18T16:19:32.943Z,28.7512
2023-04-18T16:20:33.833Z,28.7350
2023-04-18T16:21:35.416Z,28.7487
2023-04-18T16:22:37.104Z,28.7604
2023-04-18T16:23:38.712Z,28.7617
2023-04-18T16:24:42.011Z,28.7919
2023-04-18T16:25:41.998Z,28.7954
2023-04-18T16:26:43.596Z,28.7991
2023-04-18T16:27:45.298Z,28.7068
2023-04-18T16:28:46.874Z,28.6415
2023-04-18T16:29:48.502Z,28.6721
2023-04-18T16:30:50.181Z,28.6871
2023-04-18T16:31:52.067Z,28.6959
2023-04-18T16:32:54.159Z,28.6489
2023-04-18T16:33:55.345Z,28.5941
2023-04-18T16:34:57.885Z,28.5647
2023-04-18T16:35:58.509Z,28.5372
2023-04-18T16:37:01.177Z,28.5068
2023-04-18T16:38:03.664Z,28.4942
2023-04-18T16:39:08.189Z,28.4894
2023-04-18T16:40:09.878Z,28.4632
2023-04-18T16:41:11.561Z,28.4478
2023-04-18T16:42:15.653Z,28.4266
2023-04-18T16:43:14.776Z,28.3833
2023-04-18T16:44:16.452Z,28.3981
2023-04-18T16:45:17.962Z,28.4156
2023-04-18T16:46:19.723Z,28.4082
2023-04-18T16:47:21.277Z,28.4207
2023-04-18T16:48:22.983Z,28.4669
2023-04-18T16:49:24.590Z,28.5195
2023-04-18T16:50:26.273Z,28.6750
2023-04-18T16:51:27.885Z,28.8075
2023-04-18T16:52:29.543Z,28.9063
2023-04-18T16:53:31.518Z,28.9638
2023-04-18T16:54:32.836Z,29.1037
2023-04-18T16:55:34.470Z,29.2010
2023-04-18T16:56:36.160Z,29.1912
2023-04-18T16:57:37.834Z,29.0345
2023-04-18T16:58:39.380Z,28.9289
2023-04-18T16:59:40.997Z,28.6789
2023-04-18T17:00:42.653Z,28.6064
2023-04-18T17:01:44.329Z,28.5643
2023-04-18T17:02:46.007Z,28.5947
2023-04-18T17:03:47.704Z,28.6119
2023-04-18T17:04:49.307Z,28.5975
2023-04-18T17:05:50.817Z,28.5563
2023-04-18T17:06:52.552Z,28.5345
2023-04-18T17:07:54.107Z,28.4899
2023-04-18T17:08:55.960Z,28.4708
2023-04-18T17:09:57.484Z,28.4757
2023-04-18T17:10:59.191Z,28.4624
2023-04-18T17:12:00.785Z,28.4552
2023-04-18T17:13:02.694Z,28.4322
2023-04-18T17:14:04.145Z,28.4418
2023-04-18T17:15:06.026Z,28.4347
2023-04-18T17:16:07.429Z,28.4108
2023-04-18T17:17:09.051Z,28.4106
2023-04-18T17:18:10.796Z,28.3825
2023-04-18T17:19:12.526Z,28.3204
2023-04-18T17:20:14.983Z,28.2617
2023-04-18T17:21:15.663Z,28.2171
2023-04-18T17:22:17.277Z,28.1623
2023-04-18T17:23:18.977Z,28.1214
2023-04-18T17:24:20.648Z,28.0637
2023-04-18T17:25:22.481Z,28.0238
2023-04-18T17:26:23.917Z,27.9747
2023-04-18T17:27:25.571Z,27.9443
2023-04-18T17:28:27.217Z,27.8665
2023-04-18T17:29:28.879Z,27.8382
2023-04-18T17:30:30.970Z,27.8373
2023-04-18T17:31:32.262Z,27.7948
2023-04-18T17:32:33.908Z,27.7270
2023-04-18T17:33:36.406Z,27.6705
2023-04-18T17:34:37.165Z,27.5982
2023-04-18T17:35:38.797Z,27.4748
2023-04-18T17:36:40.416Z,27.4179
2023-04-18T17:37:42.106Z,27.3000
2023-04-18T17:38:43.764Z,27.2240
2023-04-18T17:39:45.341Z,27.1712
2023-04-18T17:40:47.486Z,27.1946
2023-04-18T17:41:48.573Z,27.0697
2023-04-18T17:42:50.327Z,27.0728
2023-04-18T17:43:51.946Z,27.1044
2023-04-18T17:44:53.651Z,27.0997
2023-04-18T17:45:55.318Z,27.0381
2023-04-18T17:46:56.978Z,27.0202
2023-04-18T17:47:58.793Z,26.9859
2023-04-18T17:49:00.553Z,26.8896
2023-04-18T17:50:02.024Z,26.7858
2023-04-18T17:51:03.685Z,26.8197
2023-04-18T17:52:05.645Z,26.7776
2023-04-18T17:53:06.936Z,26.7591
2023-04-18T17:54:08.686Z,26.7146
2023-04-18T17:55:10.358Z,26.7063
2023-04-18T17:56:12.102Z,26.6649
2023-04-18T17:57:13.513Z,26.6398
2023-04-18T17:58:15.291Z,26.5989
2023-04-18T17:59:16.970Z,26.5671
2023-04-18T18:00:18.534Z,26.5313
2023-04-18T18:01:20.182Z,26.4983
2023-04-18T18:02:23.243Z,26.4954
2023-04-18T18:03:23.417Z,26.4594
2023-04-18T18:04:28.180Z,26.4327
2023-04-18T18:05:26.684Z,26.4130
2023-04-18T18:06:28.367Z,26.3884
2023-04-18T18:07:29.977Z,26.3783
2023-04-18T18:08:31.618Z,26.3321
2023-04-18T18:09:33.198Z,26.2953
2023-04-18T18:10:34.954Z,26.2735
2023-04-18T18:11:36.658Z,26.2357
2023-04-18T18:12:38.204Z,26.2201
2023-04-18T18:13:39.782Z,26.1706
2023-04-18T18:14:41.505Z,26.1125
2023-04-18T18:15:43.216Z,26.0907
2023-04-18T18:16:44.866Z,26.0445
2023-04-18T18:17:46.494Z,26.0252
2023-04-18T18:18:48.074Z,25.9903
2023-04-18T18:19:49.734Z,25.9710
2023-04-18T18:20:51.370Z,25.9550
2023-04-18T18:21:53.089Z,25.9069
2023-04-18T18:22:54.662Z,25.8475
2023-04-18T18:23:56.324Z,25.7836
2023-04-18T18:24:57.969Z,25.7584
2023-04-18T18:25:59.660Z,25.7089
2023-04-18T18:27:01.279Z,25.6869
2023-04-18T18:28:02.903Z,25.6090
2023-04-18T18:29:04.511Z,25.5657
2023-04-18T18:30:06.211Z,25.5283
2023-04-18T18:31:07.908Z,25.5102
2023-04-18T18:32:09.523Z,25.4650
2023-04-18T18:33:11.983Z,25.4386
2023-04-18T18:34:12.771Z,25.4268
2023-04-18T18:35:14.462Z,25.3841
2023-04-18T18:36:16.142Z,25.3681
2023-04-18T18:37:17.704Z,25.3412
2023-04-18T18:38:19.359Z,25.2925
2023-04-18T18:39:21.094Z,25.2535
2023-04-18T18:40:22.682Z,25.2251
2023-04-18T18:41:24.646Z,25.2046
2023-04-18T18:42:25.968Z,25.1134
2023-04-18T18:43:27.593Z,25.0694
2023-04-18T18:44:29.204Z,25.0218
2023-04-18T18:45:30.887Z,25.0066
2023-04-18T18:46:32.685Z,24.9641
2023-04-18T18:47:34.922Z,24.9423
2023-04-18T18:48:35.816Z,24.9197
2023-04-18T18:49:37.483Z,24.8989
2023-04-18T18:50:39.133Z,24.8708
2023-04-18T18:51:40.853Z,24.8190
2023-04-18T18:52:42.435Z,24.7886
2023-04-18T18:53:45.160Z,24.7706
2023-04-18T18:54:45.716Z,24.7488
2023-04-18T18:55:47.290Z,24.7083
2023-04-18T18:56:49.024Z,24.6644
2023-04-18T18:57:50.694Z,24.6662
2023-04-18T18:58:52.439Z,24.6245
2023-04-18T18:59:55.721Z,24.5744
2023-04-18T19:00:55.575Z,24.5352
2023-04-18T19:01:57.292Z,24.4955
2023-04-18T19:02:59.713Z,24.4620
2023-04-18T19:04:00.710Z,24.4359
2023-04-18T19:05:02.317Z,24.4265
2023-04-18T19:06:03.728Z,24.4047
2023-04-18T19:07:05.449Z,24.3725
2023-04-18T19:08:07.197Z,24.3413
2023-04-18T19:09:08.757Z,24.3211
2023-04-18T19:10:10.370Z,24.2741
2023-04-18T19:11:12.016Z,24.2338
2023-04-18T19:12:13.738Z,24.2223
2023-04-18T19:13:15.397Z,24.2092
2023-04-18T19:14:17.019Z,24.1570
2023-04-18T19:15:18.567Z,24.1089
2023-04-18T19:16:20.347Z,24.0715
2023-04-18T19:17:22.037Z,24.0459
2023-04-18T19:18:23.631Z,24.0210
2023-04-18T19:19:25.136Z,24.0007
2023-04-18T19:20:28.721Z,23.9762
2023-04-18T19:21:28.513Z,23.9588
2023-04-18T19:22:30.230Z,23.9530
2023-04-18T19:23:32.096Z,23.9300
2023-04-18T19:24:33.448Z,23.9113
2023-04-18T19:25:35.048Z,23.8793
2023-04-18T19:26:36.727Z,23.8594
2023-04-18T19:27:38.414Z,23.8000
2023-04-18T19:28:40.156Z,23.7113
2023-04-18T19:29:41.679Z,23.7086
2023-04-18T19:30:43.314Z,23.7002
2023-04-18T19:31:44.942Z,23.6858
2023-04-18T19:32:46.695Z,23.6484
2023-04-18T19:33:48.327Z,23.6188
2023-04-18T19:34:49.905Z,23.5751
2023-04-18T19:35:51.610Z,23.5572
2023-04-18T19:36:53.237Z,23.5792
2023-04-18T19:37:54.911Z,23.5196
2023-04-18T19:38:56.611Z,23.5024
2023-04-18T19:39:58.216Z,23.4822
2023-04-18T19:40:59.803Z,23.4522
2023-04-18T19:42:01.400Z,23.4440
2023-04-18T19:43:03.619Z,23.4241
2023-04-18T19:44:04.773Z,23.4077
2023-04-18T19:45:06.432Z,23.3890
2023-04-18T19:46:08.199Z,23.3643
2023-04-18T19:47:09.717Z,23.3395
2023-04-18T19:48:11.404Z,23.3140
2023-04-18T19:49:13.308Z,23.2893
2023-04-18T19:50:14.723Z,23.2563
2023-04-18T19:51:16.272Z,23.2407
2023-04-18T19:52:18.007Z,23.2131
2023-04-18T19:53:20.301Z,23.1981
2023-04-18T19:54:21.972Z,23.1690
2023-04-18T19:55:23.024Z,23.1410
2023-04-18T19:56:24.532Z,23.1244
2023-04-18T19:57:26.256Z,23.0784
2023-04-18T19:58:27.819Z,23.0346
2023-04-18T19:59:29.515Z,23.0149
2023-04-18T20:00:31.134Z,22.9950
2023-04-18T20:01:32.854Z,22.9831
2023-04-18T20:02:34.640Z,22.9722
2023-04-18T20:03:36.276Z,22.9527
2023-04-18T20:04:37.985Z,22.9469
2023-04-18T20:05:39.409Z,22.9227
2023-04-18T20:06:41.009Z,22.9019
2023-04-18T20:07:42.676Z,22.8824
2023-04-18T20:08:44.326Z,22.8641
2023-04-18T20:09:45.957Z,22.8216
2023-04-18T20:10:47.601Z,22.7933
2023-04-18T20:11:49.261Z,22.7945
2023-04-18T20:12:50.843Z,22.7736
2023-04-18T20:13:52.598Z,22.7417
2023-04-18T20:14:54.175Z,22.7331
2023-04-18T20:15:55.834Z,22.7074
2023-04-18T20:16:57.568Z,22.6898
2023-04-18T20:17:59.256Z,22.6680
2023-04-18T20:19:00.803Z,22.6405
2023-04-18T20:20:02.380Z,22.6101
2023-04-18T20:21:04.087Z,22.6027
2023-04-18T20:22:05.697Z,22.5846
2023-04-18T20:23:07.309Z,22.5751
2023-04-18T20:24:09.026Z,22.5554
2023-04-18T20:25:10.653Z,22.5201
2023-04-18T20:26:13.094Z,22.5012
2023-04-18T20:27:13.890Z,22.4819
2023-04-18T20:28:15.581Z,22.4815
2023-04-18T20:29:17.285Z,22.4712
2023-04-18T20:30:18.856Z,22.4622
2023-04-18T20:31:20.574Z,22.4523
2023-04-18T20:32:22.139Z,22.4519
2023-04-18T20:33:23.825Z,22.4371
2023-04-18T20:34:25.506Z,22.3997
2023-04-18T20:35:27.163Z,22.3749
2023-04-18T20:36:28.777Z,22.3629
2023-04-18T20:37:30.445Z,22.3574
2023-04-18T20:38:32.092Z,22.3030
2023-04-18T20:39:33.776Z,22.3247
2023-04-18T20:40:35.354Z,22.3568
2023-04-18T20:41:37.022Z,22.3050
2023-04-18T20:42:38.637Z,22.3319
2023-04-18T20:43:40.370Z,22.3317
2023-04-18T20:44:42.074Z,22.3137
2023-04-18T20:45:43.650Z,22.3093
2023-04-18T20:46:45.274Z,22.2849
2023-04-18T20:47:46.957Z,22.2633
2023-04-18T20:48:48.510Z,22.2278
2023-04-18T20:49:50.165Z,22.2270
2023-04-18T20:50:51.947Z,22.1957
2023-04-18T20:51:53.424Z,22.1838
2023-04-18T20:52:55.162Z,22.1469
2023-04-18T20:53:56.716Z,22.1662
2023-04-18T20:54:58.477Z,22.1543
2023-04-18T20:56:00.086Z,22.1343
2023-04-18T20:57:01.719Z,22.1138
2023-04-18T20:58:03.335Z,22.1142
2023-04-18T20:59:05.068Z,22.1249
2023-04-18T21:00:06.685Z,22.1152
2023-04-18T21:01:08.356Z,22.0924
2023-04-18T21:02:10.089Z,22.0503
2023-04-18T21:03:11.750Z,22.0066
2023-04-18T21:04:13.680Z,21.9971
2023-04-18T21:05:14.971Z,22.0086
2023-04-18T21:06:16.506Z,22.0407
2023-04-18T21:07:18.199Z,22.0735
2023-04-18T21:08:19.820Z,22.0240
2023-04-18T21:09:21.488Z,22.0569
2023-04-18T21:10:23.161Z,22.0429
2023-04-18T21:11:24.790Z,22.0259
2023-04-18T21:12:26.351Z,22.0287
2023-04-18T21:13:28.083Z,22.0152
2023-04-18T21:14:29.681Z,22.0096
2023-04-18T21:15:31.401Z,21.9953
2023-04-18T21:16:33.141Z,21.9753
2023-04-18T21:17:34.692Z,21.9809
2023-04-18T21:18:36.541Z,21.9706
2023-04-18T21:19:37.977Z,21.9692
2023-04-18T21:20:39.672Z,21.9770
2023-04-18T21:21:41.259Z,21.9942
2023-04-18T21:22:42.911Z,22.0107
2023-04-18T21:23:44.542Z,22.0094
2023-04-18T21:24:46.190Z,22.0068
2023-04-18T21:25:47.903Z,22.0025
2023-04-18T21:26:49.441Z,21.9946
2023-04-18T21:27:51.149Z,21.9815
2023-04-18T21:28:52.755Z,21.9735
2023-04-18T21:29:54.440Z,21.9505
2023-04-18T21:30:56.164Z,21.9503
2023-04-18T21:31:57.785Z,21.9628
2023-04-18T21:32:59.377Z,21.9394
2023-04-18T21:34:01.068Z,21.9490
2023-04-18T21:35:03.605Z,21.9653
2023-04-18T21:36:04.353Z,21.9895
2023-04-18T21:37:05.962Z,21.9829
2023-04-18T21:38:07.538Z,21.9790
2023-04-18T21:39:09.241Z,21.9702
2023-04-18T21:40:10.952Z,21.9661
2023-04-18T21:41:12.612Z,21.9589
2023-04-18T21:42:14.110Z,21.9462
2023-04-18T21:43:15.841Z,21.9384
2023-04-18T21:44:17.477Z,21.9230
2023-04-18T21:45:19.194Z,21.9092
2023-04-18T21:46:24.220Z,21.9369
2023-04-18T21:47:22.402Z,21.9365
2023-04-18T21:48:24.013Z,21.9435
2023-04-18T21:49:25.643Z,21.9739
2023-04-18T21:50:27.306Z,21.9998
2023-04-18T21:51:29.113Z,21.9934
2023-04-18T21:52:30.597Z,21.9891
2023-04-18T21:53:32.259Z,21.9706
2023-04-18T21:54:33.881Z,21.9725
2023-04-18T21:55:35.561Z,21.9632
2023-04-18T21:56:37.224Z,21.9622
2023-04-18T21:57:38.826Z,21.9322
2023-04-18T21:58:40.453Z,21.9195
2023-04-18T21:59:42.209Z,21.9168
2023-04-18T22:00:43.846Z,21.9291
2023-04-18T22:01:45.449Z,21.9367
2023-04-18T22:02:47.313Z,21.9466
2023-04-18T22:03:48.888Z,21.9427
2023-04-18T22:04:50.332Z,21.9347
2023-04-18T22:05:52.548Z,21.9096
2023-04-18T22:06:53.682Z,21.9240
2023-04-18T22:07:58.458Z,21.9223
2023-04-18T22:08:56.928Z,21.9098
2023-04-18T22:09:58.606Z,21.8926
2023-04-18T22:11:01.142Z,21.9133
2023-04-18T22:12:01.958Z,21.9369
2023-04-18T22:13:03.601Z,21.9419
2023-04-18T22:14:05.216Z,21.9396
2023-04-18T22:15:06.817Z,21.9657
2023-04-18T22:16:09.101Z,21.9628
2023-04-18T22:17:10.180Z,21.9560
2023-04-18T22:18:11.792Z,21.9591
2023-04-18T22:19:13.410Z,21.9365
2023-04-18T22:20:15.079Z,21.9334
2023-04-18T22:21:16.734Z,21.9106
2023-04-18T22:22:18.408Z,21.8285
2023-04-18T22:23:20.050Z,21.8367
2023-04-18T22:24:21.802Z,21.9028
2023-04-18T22:25:23.322Z,21.9402
2023-04-18T22:26:25.006Z,21.9287
2023-04-18T22:27:27.122Z,21.9267
2023-04-18T22:28:28.291Z,21.9490
2023-04-18T22:29:29.895Z,21.9566
2023-04-18T22:30:31.686Z,21.9441
2023-04-18T22:31:34.061Z,21.9221
2023-04-18T22:32:34.938Z,21.9082
2023-04-18T22:33:36.532Z,21.8907
2023-04-18T22:34:38.104Z,21.8718
2023-04-18T22:35:39.807Z,21.8628
2023-04-18T22:36:41.439Z,21.8934
2023-04-18T22:37:43.599Z,21.8934
2023-04-18T22:38:44.754Z,21.8681
2023-04-18T22:39:46.375Z,21.9032
2023-04-18T22:40:48.007Z,21.9462
2023-04-18T22:41:49.722Z,21.9476
2023-04-18T22:42:51.336Z,21.9408
2023-04-18T22:43:52.992Z,21.9384
2023-04-18T22:44:54.633Z,21.9156
2023-04-18T22:45:56.353Z,21.9002
2023-04-18T22:46:57.974Z,21.8657
2023-04-18T22:48:00.628Z,21.8626
2023-04-18T22:49:01.360Z,21.8476
2023-04-18T22:50:03.090Z,21.9051
2023-04-18T22:51:04.686Z,21.8301
2023-04-18T22:52:06.342Z,21.8303
2023-04-18T22:53:08.082Z,21.8720
2023-04-18T22:54:09.649Z,21.9256
2023-04-18T22:55:11.369Z,21.9614
2023-04-18T22:56:12.922Z,21.9552
2023-04-18T22:57:15.275Z,21.9542
2023-04-18T22:58:16.296Z,21.9484
2023-04-18T22:59:18.791Z,21.9133
2023-04-18T23:00:19.527Z,21.8977
2023-04-18T23:01:23.016Z,21.8776
2023-04-18T23:02:23.005Z,21.9092
2023-04-18T23:03:24.893Z,21.9293
2023-04-18T23:04:26.267Z,21.8632
2023-04-18T23:05:27.763Z,21.8599
2023-04-18T23:06:29.392Z,21.9004
2023-04-18T23:07:30.959Z,21.9571
2023-04-18T23:08:32.718Z,21.9571
2023-04-18T23:09:34.264Z,21.9429
2023-04-18T23:10:35.972Z,21.9275
2023-04-18T23:11:37.589Z,21.9160
2023-04-18T23:12:39.276Z,21.9014
2023-04-18T23:13:40.966Z,21.8747
2023-04-18T23:14:42.573Z,21.8572
2023-04-18T23:15:44.182Z,21.8730
2023-04-18T23:16:45.882Z,21.9145